Time;durP1;ratioP1;P1;durP2;ratioP2;P2;SDS_P1;SDS_P2;PMS_P1;PMS_P2;Temp;Humidity;BMP_temperature;BMP_pressure;BME280_temperature;BME280_humidity;BME280_pressure;Samples;Min_cycle;Max_cycle;Signal;HPM_P1;HPM_P2
2021/03/10 00:01:32;;;;;;;52.20;35.67;;;4.20;99.90;;;;;;5059634;28;20469;-79
2021/03/10 00:03:58;;;;;;;46.38;32.78;;;4.20;99.90;;;;;;5075210;28;20229;-78
2021/03/10 00:06:26;;;;;;;39.40;29.27;;;4.10;99.90;;;;;;5060458;28;20203;-81
2021/03/10 00:08:53;;;;;;;40.58;29.73;;;4.10;99.90;;;;;;5063164;28;20969;-78
2021/03/10 00:11:20;;;;;;;38.17;29.67;;;4.10;99.90;;;;;;5064753;28;20203;-80
2021/03/10 00:13:46;;;;;;;46.45;30.08;;;4.10;99.90;;;;;;5063108;28;20260;-80
2021/03/10 00:16:13;;;;;;;42.40;30.83;;;4.10;99.90;;;;;;5064325;28;20191;-80
2021/03/10 00:18:40;;;;;;;39.38;30.85;;;4.10;99.90;;;;;;5065630;28;20203;-79
2021/03/10 00:21:07;;;;;;;40.17;28.27;;;4.10;99.90;;;;;;5069420;28;20213;-79
2021/03/10 00:23:34;;;;;;;36.10;29.98;;;4.10;99.90;;;;;;5071277;28;20225;-80
2021/03/10 00:26:01;;;;;;;35.15;29.27;;;4.10;99.90;;;;;;5069766;28;20206;-80
2021/03/10 00:28:29;;;;;;;39.45;30.17;;;4.30;99.90;;;;;;5052013;28;20202;-80
2021/03/10 00:30:56;;;;;;;40.90;29.15;;;4.10;99.90;;;;;;5072757;28;20207;-80
2021/03/10 00:33:23;;;;;;;42.47;28.52;;;4.10;99.90;;;;;;5068325;28;20219;-80
2021/03/10 00:35:50;;;;;;;42.97;32.13;;;4.10;99.90;;;;;;5054804;28;20203;-80
2021/03/10 00:38:17;;;;;;;41.10;32.17;;;4.00;99.90;;;;;;5059355;28;20203;-81
2021/03/10 00:40:44;;;;;;;39.35;28.92;;;4.10;99.90;;;;;;5038324;28;20191;-80
2021/03/10 00:43:12;;;;;;;38.80;30.67;;;4.00;99.90;;;;;;5066296;28;20721;-81
2021/03/10 00:45:38;;;;;;;40.55;29.35;;;4.00;99.90;;;;;;5043840;28;20215;-80
2021/03/10 00:48:06;;;;;;;39.78;30.65;;;4.00;99.90;;;;;;5059776;28;20195;-81
2021/03/10 00:50:33;;;;;;;38.20;27.60;;;4.10;99.90;;;;;;5069491;28;20202;-80
2021/03/10 00:52:59;;;;;;;40.13;29.15;;;4.10;99.90;;;;;;5078607;28;20221;-80
2021/03/10 00:55:26;;;;;;;42.22;29.65;;;4.20;99.90;;;;;;5075184;28;20226;-80
2021/03/10 00:57:53;;;;;;;40.67;30.02;;;4.40;99.90;;;;;;5063809;28;20211;-78
2021/03/10 01:00:21;;;;;;;40.97;30.58;;;4.10;99.90;;;;;;5080975;28;20206;-80
2021/03/10 01:02:49;;;;;;;45.42;30.10;;;4.10;99.90;;;;;;5071687;28;20299;-80
2021/03/10 01:05:16;;;;;;;37.92;30.13;;;4.10;99.90;;;;;;5079417;28;20626;-78
2021/03/10 01:07:43;;;;;;;40.22;28.60;;;4.00;99.90;;;;;;5076151;28;20217;-80
2021/03/10 01:10:11;;;;;;;34.40;28.90;;;4.10;99.90;;;;;;5080897;28;20560;-80
2021/03/10 01:12:39;;;;;;;37.15;30.63;;;4.10;99.90;;;;;;5059324;28;20195;-81
2021/03/10 01:15:10;;;;;;;38.33;28.83;;;4.10;99.90;;;;;;5077249;28;20633;-80
2021/03/10 01:17:36;;;;;;;36.92;27.83;;;4.10;99.90;;;;;;5069972;28;20195;-80
2021/03/10 01:20:07;;;;;;;40.67;31.73;;;4.10;99.90;;;;;;5080684;28;20753;-80
2021/03/10 01:22:34;;;;;;;38.78;29.95;;;4.20;99.90;;;;;;5082412;28;20272;-81
2021/03/10 01:25:01;;;;;;;40.25;32.30;;;4.10;99.90;;;;;;5086112;28;20202;-79
2021/03/10 01:27:27;;;;;;;41.80;31.02;;;4.00;99.90;;;;;;5079988;28;20581;-79
2021/03/10 01:29:54;;;;;;;38.90;28.85;;;3.80;99.90;;;;;;5071612;28;20224;-79
2021/03/10 01:32:23;;;;;;;45.50;30.60;;;3.80;99.90;;;;;;5073187;28;20222;-79
2021/03/10 01:34:49;;;;;;;38.08;30.08;;;4.00;99.90;;;;;;5067005;28;20742;-79
2021/03/10 01:37:16;;;;;;;45.25;34.60;;;3.80;99.90;;;;;;5073989;28;20254;-79
2021/03/10 01:39:43;;;;;;;43.20;31.00;;;3.90;99.90;;;;;;5074367;28;20274;-79
2021/03/10 01:42:10;;;;;;;41.58;31.35;;;3.90;99.90;;;;;;5058469;28;20215;-79
2021/03/10 01:44:36;;;;;;;39.67;30.13;;;3.90;99.90;;;;;;5066832;28;20245;-79
2021/03/10 01:47:04;;;;;;;43.63;32.03;;;3.90;99.90;;;;;;5065928;28;20199;-78
2021/03/10 01:49:31;;;;;;;39.45;29.50;;;4.00;99.90;;;;;;5069244;28;20198;-79
2021/03/10 01:51:58;;;;;;;45.90;34.53;;;3.90;99.90;;;;;;5069169;28;20286;-78
2021/03/10 01:54:25;;;;;;;43.47;33.13;;;3.90;99.90;;;;;;5060030;28;20300;-79
2021/03/10 01:56:52;;;;;;;41.65;31.15;;;4.00;99.90;;;;;;5057463;28;20215;-80
2021/03/10 01:59:18;;;;;;;45.95;33.33;;;4.00;99.90;;;;;;5066622;28;20690;-79
2021/03/10 02:01:46;;;;;;;43.38;31.63;;;4.00;99.90;;;;;;5066929;28;20196;-79
2021/03/10 02:04:13;;;;;;;46.20;33.10;;;3.90;99.90;;;;;;5073848;28;20229;-79
2021/03/10 02:06:52;;;;;;;49.73;34.93;;;3.90;99.90;;;;;;5071324;28;20222;-79
2021/03/10 02:09:25;;;;;;;44.63;32.25;;;4.00;99.90;;;;;;5063392;28;20202;-79
2021/03/10 02:12:02;;;;;;;43.05;30.58;;;4.00;99.90;;;;;;5053674;28;20276;-79
2021/03/10 02:14:37;;;;;;;43.15;31.98;;;4.00;99.90;;;;;;5056000;28;20206;-79
2021/03/10 02:17:08;;;;;;;44.47;33.00;;;3.90;99.90;;;;;;5047886;28;20721;-79
2021/03/10 02:20:06;;;;;;;42.63;32.03;;;3.90;99.90;;;;;;5056193;28;20187;-79
2021/03/10 02:22:51;;;;;;;40.13;29.40;;;4.10;99.90;;;;;;5067066;28;20645;-79
2021/03/10 02:25:32;;;;;;;39.28;30.55;;;3.90;99.90;;;;;;5067171;28;20195;-79
2021/03/10 02:28:02;;;;;;;45.65;32.58;;;4.00;99.90;;;;;;5078604;28;20277;-79
2021/03/10 02:30:34;;;;;;;45.90;34.28;;;4.00;99.90;;;;;;5079188;28;20202;-79
2021/03/10 02:33:04;;;;;;;50.00;32.63;;;4.10;99.90;;;;;;5062215;28;20281;-79
2021/03/10 02:35:31;;;;;;;51.83;34.30;;;4.10;99.90;;;;;;5049899;28;20667;-79
2021/03/10 02:38:01;;;;;;;49.10;32.70;;;4.10;99.90;;;;;;5053104;28;20686;-79
2021/03/10 02:40:28;;;;;;;49.50;34.80;;;4.00;99.90;;;;;;5076569;28;20198;-79
2021/03/10 02:42:56;;;;;;;48.65;35.08;;;4.10;99.90;;;;;;5058528;28;20223;-79
2021/03/10 02:45:26;;;;;;;56.05;38.20;;;4.10;99.90;;;;;;5056008;28;20202;-79
2021/03/10 02:47:54;;;;;;;47.42;34.08;;;4.10;99.90;;;;;;5076099;28;20677;-79
2021/03/10 02:50:22;;;;;;;50.50;34.38;;;4.10;99.90;;;;;;5053997;28;20199;-79
2021/03/10 02:52:50;;;;;;;50.65;36.55;;;4.10;99.90;;;;;;5065364;28;20191;-79
2021/03/10 02:55:17;;;;;;;50.67;35.10;;;4.00;99.90;;;;;;5087097;28;20202;-79
2021/03/10 02:57:45;;;;;;;49.90;36.80;;;4.10;99.90;;;;;;5099629;28;20163;-81
2021/03/10 03:00:14;;;;;;;55.15;35.30;;;4.00;99.90;;;;;;5081313;28;20202;-79
2021/03/10 03:02:42;;;;;;;61.90;39.72;;;4.10;99.90;;;;;;5069700;28;20214;-79
2021/03/10 03:05:09;;;;;;;54.78;36.58;;;4.00;99.90;;;;;;5069806;28;20199;-79
2021/03/10 03:07:38;;;;;;;57.90;37.55;;;4.00;99.90;;;;;;5049532;28;20218;-79
2021/03/10 03:10:07;;;;;;;52.35;36.58;;;4.10;99.90;;;;;;5065345;28;20198;-79
2021/03/10 03:12:35;;;;;;;52.90;36.42;;;4.10;99.90;;;;;;5066708;28;20219;-78
2021/03/10 03:15:04;;;;;;;55.45;35.33;;;4.00;99.90;;;;;;5067614;28;20204;-79
2021/03/10 03:17:31;;;;;;;50.70;35.28;;;4.00;99.90;;;;;;5058287;28;20273;-79
2021/03/10 03:20:00;;;;;;;47.55;32.53;;;4.00;99.90;;;;;;5064006;28;20605;-79
2021/03/10 03:22:26;;;;;;;50.83;34.67;;;4.00;99.90;;;;;;5072115;28;20222;-79
2021/03/10 03:24:54;;;;;;;44.90;32.53;;;4.00;99.90;;;;;;5063916;28;20639;-79
2021/03/10 03:27:27;;;;;;;51.35;35.20;;;4.10;99.90;;;;;;5074280;28;20239;-79
2021/03/10 03:29:56;;;;;;;54.28;35.60;;;4.10;99.90;;;;;;5074232;28;20212;-79
2021/03/10 03:32:25;;;;;;;60.00;36.50;;;4.00;99.90;;;;;;5054610;28;20198;-79
2021/03/10 03:34:52;;;;;;;53.38;38.25;;;4.00;99.90;;;;;;5049440;28;20694;-79
2021/03/10 03:37:19;;;;;;;53.10;34.72;;;3.90;99.90;;;;;;5075306;28;20224;-79
2021/03/10 03:39:46;;;;;;;48.33;33.38;;;4.00;99.90;;;;;;5071389;28;20209;-79
2021/03/10 03:42:13;;;;;;;55.22;38.17;;;4.00;99.90;;;;;;5064623;28;20570;-79
2021/03/10 03:44:40;;;;;;;52.92;37.00;;;4.00;99.90;;;;;;5068311;28;20222;-79
2021/03/10 03:47:07;;;;;;;53.05;37.08;;;4.00;99.90;;;;;;5068984;28;20195;-79
2021/03/10 03:49:36;;;;;;;47.38;37.45;;;4.00;99.90;;;;;;5035735;28;20199;-79
2021/03/10 03:52:03;;;;;;;47.97;33.58;;;4.00;99.90;;;;;;5064872;28;20225;-78
2021/03/10 03:54:31;;;;;;;56.33;36.15;;;4.00;99.90;;;;;;5062046;28;20211;-79
2021/03/10 03:56:57;;;;;;;47.80;34.80;;;4.00;99.90;;;;;;5063624;28;20226;-79
2021/03/10 03:59:24;;;;;;;48.60;34.45;;;4.00;99.90;;;;;;5077607;28;20217;-79
2021/03/10 04:01:51;;;;;;;52.17;35.88;;;4.00;99.90;;;;;;5065664;28;20285;-79
2021/03/10 04:04:18;;;;;;;48.33;35.67;;;4.00;99.90;;;;;;5066718;28;20224;-79
2021/03/10 04:06:46;;;;;;;45.33;32.80;;;4.00;99.90;;;;;;5066439;28;20230;-79
2021/03/10 04:09:12;;;;;;;48.58;34.70;;;4.10;99.90;;;;;;5062324;28;20282;-79
2021/03/10 04:11:43;;;;;;;50.55;33.50;;;4.00;99.90;;;;;;5064367;28;20191;-79
2021/03/10 04:14:09;;;;;;;46.63;31.88;;;4.00;99.90;;;;;;5058009;28;20698;-79
2021/03/10 04:16:36;;;;;;;47.00;33.42;;;4.10;99.90;;;;;;5055311;28;20207;-79
2021/03/10 04:19:03;;;;;;;49.30;34.67;;;4.10;99.90;;;;;;5059024;28;20278;-79
2021/03/10 04:21:30;;;;;;;48.15;33.50;;;4.10;99.90;;;;;;5075548;28;20195;-79
2021/03/10 04:23:57;;;;;;;50.80;34.85;;;4.10;99.90;;;;;;5073792;28;20218;-79
2021/03/10 04:26:24;;;;;;;46.50;33.63;;;4.10;99.90;;;;;;5045951;28;20691;-79
2021/03/10 04:28:52;;;;;;;48.15;31.40;;;4.10;99.90;;;;;;5058864;28;20200;-79
2021/03/10 04:31:19;;;;;;;49.80;34.40;;;4.00;99.90;;;;;;5062844;28;20202;-79
2021/03/10 04:33:46;;;;;;;49.47;32.90;;;4.00;99.90;;;;;;5066814;28;20199;-79
2021/03/10 04:36:13;;;;;;;49.25;32.80;;;4.00;99.90;;;;;;5072805;28;20211;-80
2021/03/10 04:38:40;;;;;;;46.50;32.85;;;3.90;99.90;;;;;;5060984;28;20195;-78
2021/03/10 04:41:07;;;;;;;52.72;35.10;;;3.90;99.90;;;;;;5052838;28;20209;-79
2021/03/10 04:43:33;;;;;;;48.13;35.00;;;3.90;99.90;;;;;;5073179;28;20333;-79
2021/03/10 04:46:01;;;;;;;47.25;33.63;;;4.00;99.90;;;;;;5071142;28;20248;-79
2021/03/10 04:48:27;;;;;;;52.33;35.53;;;4.10;99.90;;;;;;5063189;28;20670;-79
2021/03/10 04:50:54;;;;;;;55.28;37.47;;;3.90;99.90;;;;;;5065060;28;20190;-78
2021/03/10 04:53:21;;;;;;;54.42;36.55;;;4.10;99.90;;;;;;5073481;28;20214;-79
2021/03/10 04:55:48;;;;;;;55.07;36.40;;;4.10;99.90;;;;;;5059022;28;20195;-79
2021/03/10 04:58:15;;;;;;;54.22;37.70;;;4.10;99.90;;;;;;5057631;28;20573;-79
2021/03/10 05:00:42;;;;;;;62.53;40.58;;;4.00;99.90;;;;;;5055999;28;20655;-79
2021/03/10 05:03:10;;;;;;;51.05;36.05;;;3.90;99.90;;;;;;5064494;28;20222;-79
2021/03/10 05:05:36;;;;;;;54.13;37.25;;;3.90;99.90;;;;;;5054567;28;20574;-80
2021/03/10 05:08:04;;;;;;;57.58;37.28;;;3.90;99.90;;;;;;5063174;28;20207;-79
2021/03/10 05:10:31;;;;;;;53.13;37.00;;;3.90;99.90;;;;;;5069152;28;20206;-79
2021/03/10 05:12:58;;;;;;;56.05;37.00;;;3.90;99.90;;;;;;5054053;28;20219;-79
2021/03/10 05:15:24;;;;;;;59.35;38.25;;;4.00;99.90;;;;;;5037677;28;20276;-80
2021/03/10 05:17:51;;;;;;;55.17;36.20;;;4.00;99.90;;;;;;5054159;28;20195;-79
2021/03/10 05:20:19;;;;;;;55.47;36.90;;;4.10;99.90;;;;;;5065098;28;20195;-79
2021/03/10 05:22:46;;;;;;;58.40;37.30;;;4.20;99.90;;;;;;5061740;28;20267;-79
2021/03/10 05:25:13;;;;;;;55.33;36.22;;;4.10;99.90;;;;;;5067749;28;20206;-80
2021/03/10 05:27:41;;;;;;;56.05;38.25;;;4.10;99.90;;;;;;5074831;28;20253;-79
2021/03/10 05:30:09;;;;;;;57.60;37.85;;;4.10;99.90;;;;;;5057481;28;20233;-79
2021/03/10 05:32:37;;;;;;;55.92;37.42;;;4.00;99.90;;;;;;5056711;28;20179;-80
2021/03/10 05:35:05;;;;;;;57.67;36.00;;;4.10;99.90;;;;;;5054787;28;20674;-79
2021/03/10 05:37:32;;;;;;;60.60;37.70;;;4.10;99.90;;;;;;5037608;28;20278;-79
2021/03/10 05:39:59;;;;;;;57.05;36.95;;;4.10;99.90;;;;;;5065027;28;20219;-79
2021/03/10 05:42:26;;;;;;;51.50;37.23;;;4.10;99.90;;;;;;5062813;28;20253;-79
2021/03/10 05:44:53;;;;;;;56.55;36.38;;;4.00;99.90;;;;;;5060859;28;20222;-79
2021/03/10 05:47:20;;;;;;;59.05;38.03;;;4.00;99.90;;;;;;5078984;28;20319;-80
2021/03/10 05:49:48;;;;;;;51.55;35.75;;;4.10;99.90;;;;;;5077018;28;20209;-80
2021/03/10 05:52:16;;;;;;;56.38;37.00;;;4.10;99.90;;;;;;5078205;28;20199;-80
2021/03/10 05:54:44;;;;;;;52.42;36.03;;;4.00;99.90;;;;;;5079020;28;20237;-79
2021/03/10 05:57:11;;;;;;;51.33;38.10;;;4.00;99.90;;;;;;5077237;28;20232;-80
2021/03/10 05:59:38;;;;;;;58.92;38.55;;;4.10;99.90;;;;;;5060286;28;20195;-79
2021/03/10 06:02:05;;;;;;;60.20;38.72;;;4.00;99.90;;;;;;5058619;28;20841;-78
2021/03/10 06:04:40;;;;;;;52.00;34.35;;;4.10;99.90;;;;;;5068757;28;20219;-79
2021/03/10 06:07:18;;;;;;;52.20;37.00;;;4.00;99.90;;;;;;5076106;28;20285;-79
2021/03/10 06:09:56;;;;;;;58.13;38.72;;;4.00;99.90;;;;;;5081814;28;20186;-79
2021/03/10 06:12:23;;;;;;;57.30;37.78;;;4.00;99.90;;;;;;5074490;28;20569;-79
2021/03/10 06:14:59;;;;;;;64.28;39.75;;;3.90;99.90;;;;;;5068692;28;20619;-79
2021/03/10 06:17:26;;;;;;;56.33;38.13;;;3.90;99.90;;;;;;5068599;28;20256;-79
2021/03/10 06:19:53;;;;;;;55.27;39.73;;;3.90;99.90;;;;;;5090290;28;20191;-79
2021/03/10 06:22:20;;;;;;;58.13;38.47;;;4.00;99.90;;;;;;5091278;28;20219;-79
2021/03/10 06:24:50;;;;;;;59.58;40.47;;;3.90;99.90;;;;;;5070184;28;20226;-79
2021/03/10 06:27:22;;;;;;;58.10;41.10;;;4.00;99.90;;;;;;5067216;28;20194;-79
2021/03/10 06:29:57;;;;;;;54.25;38.20;;;4.00;99.90;;;;;;5063183;28;20202;-80
2021/03/10 06:32:24;;;;;;;65.97;43.15;;;4.10;99.90;;;;;;5042382;28;20254;-79
2021/03/10 06:34:52;;;;;;;59.17;39.33;;;4.10;99.90;;;;;;5074559;28;20210;-79
2021/03/10 06:37:28;;;;;;;56.25;37.50;;;4.10;99.90;;;;;;5073280;28;20195;-79
2021/03/10 06:40:06;;;;;;;58.92;39.88;;;4.20;99.90;;;;;;5051331;28;20217;-79
2021/03/10 06:42:34;;;;;;;58.33;37.40;;;4.10;99.90;;;;;;5065718;28;20198;-79
2021/03/10 06:45:01;;;;;;;64.32;41.40;;;4.20;99.90;;;;;;5054655;28;20265;-80
2021/03/10 06:47:35;;;;;;;59.20;38.90;;;4.20;99.90;;;;;;5055254;28;20205;-79
2021/03/10 06:50:04;;;;;;;58.73;41.63;;;4.30;99.90;;;;;;5054813;28;20277;-80
2021/03/10 06:52:31;;;;;;;59.70;40.00;;;4.30;99.90;;;;;;5064214;28;20215;-79
2021/03/10 06:55:00;;;;;;;56.70;39.80;;;4.40;99.90;;;;;;5058915;28;20222;-80
2021/03/10 06:57:27;;;;;;;54.85;39.50;;;4.30;99.90;;;;;;5069237;28;20202;-80
2021/03/10 06:59:57;;;;;;;60.47;41.40;;;4.30;99.90;;;;;;5063942;28;20275;-79
2021/03/10 07:02:25;;;;;;;59.10;41.00;;;4.30;99.90;;;;;;5071221;28;20195;-79
2021/03/10 07:04:53;;;;;;;53.63;37.80;;;4.30;99.90;;;;;;5059055;28;20226;-79
2021/03/10 07:07:19;;;;;;;54.80;38.77;;;4.30;99.90;;;;;;5056574;28;20242;-79
2021/03/10 07:09:46;;;;;;;55.40;38.70;;;4.30;99.90;;;;;;5058856;28;20247;-80
2021/03/10 07:12:15;;;;;;;55.53;37.83;;;4.30;99.90;;;;;;5059157;28;20210;-79
2021/03/10 07:14:42;;;;;;;52.25;38.65;;;4.30;99.90;;;;;;5069979;28;20238;-80
2021/03/10 07:17:11;;;;;;;54.63;39.27;;;4.40;99.90;;;;;;5058683;28;20223;-79
2021/03/10 07:19:39;;;;;;;54.67;40.73;;;4.30;99.90;;;;;;5066116;28;20199;-80
2021/03/10 07:22:14;;;;;;;60.87;36.87;;;4.30;99.90;;;;;;5073381;28;20214;-80
2021/03/10 07:24:48;;;;;;;55.85;38.38;;;4.30;99.90;;;;;;5066545;28;20214;-79
2021/03/10 07:27:27;;;;;;;57.92;39.55;;;4.30;99.90;;;;;;5063230;28;20285;-75
2021/03/10 07:29:58;;;;;;;60.47;41.03;;;4.40;99.90;;;;;;5061328;28;20195;-75
2021/03/10 07:32:26;;;;;;;57.65;40.03;;;4.60;99.90;;;;;;5066515;28;20244;-76
2021/03/10 07:35:02;;;;;;;55.90;39.13;;;4.60;99.90;;;;;;5057513;28;20706;-74
2021/03/10 07:37:29;;;;;;;55.55;38.70;;;4.50;99.90;;;;;;5064269;28;20195;-77
2021/03/10 07:40:08;;;;;;;55.28;38.80;;;4.50;99.90;;;;;;5070229;28;20222;-76
2021/03/10 07:42:35;;;;;;;58.85;40.03;;;4.50;99.90;;;;;;5051259;28;20589;-76
2021/03/10 07:45:02;;;;;;;54.33;39.25;;;4.50;99.90;;;;;;5059570;28;20690;-75
2021/03/10 07:47:30;;;;;;;58.42;40.53;;;4.60;99.90;;;;;;5058152;28;20187;-76
2021/03/10 07:49:58;;;;;;;56.92;38.58;;;4.70;99.90;;;;;;5064907;28;20208;-76
2021/03/10 07:52:28;;;;;;;56.72;37.97;;;4.70;99.90;;;;;;5057228;28;20789;-76
2021/03/10 07:54:59;;;;;;;53.17;36.80;;;4.60;99.90;;;;;;5060519;28;20300;-76
2021/03/10 07:57:26;;;;;;;51.58;39.03;;;4.70;99.90;;;;;;5064749;28;20190;-76
2021/03/10 07:59:54;;;;;;;48.22;33.38;;;4.80;99.90;;;;;;5069869;28;20260;-76
2021/03/10 08:02:21;;;;;;;51.42;36.70;;;5.20;99.90;;;;;;5064081;28;20681;-76
2021/03/10 08:04:56;;;;;;;52.33;36.55;;;5.10;99.90;;;;;;5066515;28;20218;-76
2021/03/10 08:07:25;;;;;;;51.15;37.50;;;5.20;99.90;;;;;;5058505;28;20708;-76
2021/03/10 08:09:53;;;;;;;50.33;37.10;;;5.10;99.90;;;;;;5070162;28;20194;-76
2021/03/10 08:12:35;;;;;;;49.70;36.60;;;5.10;99.90;;;;;;5061052;28;20209;-76
2021/03/10 08:15:03;;;;;;;47.22;36.70;;;5.10;99.90;;;;;;5058699;28;20187;-76
2021/03/10 08:17:30;;;;;;;45.03;33.08;;;5.20;99.90;;;;;;5060083;28;20191;-76
2021/03/10 08:19:59;;;;;;;46.63;34.08;;;5.30;99.90;;;;;;5069398;28;20271;-75
2021/03/10 08:22:28;;;;;;;44.03;32.67;;;5.30;99.90;;;;;;5065288;28;20294;-77
2021/03/10 08:24:56;;;;;;;46.75;33.08;;;5.20;99.90;;;;;;5068965;28;20623;-74
2021/03/10 08:27:29;;;;;;;44.28;34.08;;;5.40;99.90;;;;;;5073496;28;20199;-76
2021/03/10 08:29:56;;;;;;;43.30;32.88;;;5.40;99.90;;;;;;5050054;28;20195;-76
2021/03/10 08:32:23;;;;;;;44.65;33.85;;;5.50;99.90;;;;;;5062475;28;20198;-76
2021/03/10 08:34:51;;;;;;;45.55;34.17;;;5.70;99.90;;;;;;5058512;28;20219;-75
2021/03/10 08:37:18;;;;;;;41.47;31.40;;;5.90;99.90;;;;;;5035833;28;20282;-76
2021/03/10 08:39:47;;;;;;;44.38;31.55;;;5.90;99.90;;;;;;5054108;28;20203;-76
2021/03/10 08:42:17;;;;;;;39.90;29.10;;;5.90;99.90;;;;;;5051570;28;20211;-75
2021/03/10 08:44:46;;;;;;;42.78;31.70;;;5.80;99.90;;;;;;5053756;28;20246;-75
2021/03/10 08:47:15;;;;;;;40.05;31.70;;;5.80;99.90;;;;;;5044246;28;20659;-76
2021/03/10 08:49:43;;;;;;;42.50;32.30;;;6.00;99.90;;;;;;5054279;28;20227;-75
2021/03/10 08:52:12;;;;;;;42.53;30.83;;;6.30;99.90;;;;;;5034799;28;20195;-76
2021/03/10 08:54:52;;;;;;;42.83;32.85;;;6.50;99.90;;;;;;5050696;28;20211;-77
2021/03/10 08:57:22;;;;;;;41.72;31.15;;;6.50;99.90;;;;;;5050555;28;20234;-75
2021/03/10 08:59:49;;;;;;;37.83;30.45;;;6.20;99.90;;;;;;5026368;28;20199;-75
2021/03/10 09:02:24;;;;;;;41.22;30.60;;;6.20;99.90;;;;;;5047737;28;20191;-76
2021/03/10 09:04:51;;;;;;;42.65;31.30;;;6.30;99.90;;;;;;5050611;28;20231;-76
2021/03/10 09:07:19;;;;;;;41.38;28.95;;;6.50;99.90;;;;;;5050761;28;20285;-75
2021/03/10 09:09:47;;;;;;;37.33;28.95;;;6.80;99.90;;;;;;5050565;28;20294;-75
2021/03/10 09:12:16;;;;;;;38.47;27.92;;;6.90;99.90;;;;;;5051512;28;20284;-76
2021/03/10 09:14:58;;;;;;;38.10;30.13;;;6.70;99.90;;;;;;5054378;28;20304;-75
2021/03/10 09:17:31;;;;;;;44.17;32.50;;;6.50;99.90;;;;;;5039258;28;20199;-75
2021/03/10 09:20:03;;;;;;;40.08;29.30;;;6.60;99.90;;;;;;5055507;28;20196;-75
2021/03/10 09:22:43;;;;;;;38.50;30.08;;;6.80;99.90;;;;;;5039543;28;20191;-78
2021/03/10 09:25:30;;;;;;;33.15;26.92;;;6.40;99.90;;;;;;5038507;28;20218;-81
2021/03/10 09:28:05;;;;;;;37.22;29.35;;;6.40;99.90;;;;;;5055493;28;20701;-79
2021/03/10 09:30:36;;;;;;;35.22;28.70;;;6.60;99.90;;;;;;5055115;28;20207;-78
2021/03/10 09:33:04;;;;;;;35.40;27.95;;;6.90;99.90;;;;;;5056433;28;20215;-79
2021/03/10 09:35:34;;;;;;;36.22;27.92;;;7.10;99.90;;;;;;5057450;28;20202;-79
2021/03/10 09:38:05;;;;;;;36.80;26.90;;;7.10;99.90;;;;;;5053760;28;20296;-79
2021/03/10 09:40:38;;;;;;;35.28;28.15;;;7.20;99.90;;;;;;5078325;28;20195;-79
2021/03/10 09:43:08;;;;;;;35.72;27.05;;;7.60;99.90;;;;;;5078749;28;20287;-80
2021/03/10 09:45:37;;;;;;;33.97;26.50;;;7.40;99.90;;;;;;5080532;28;20184;-80
2021/03/10 09:48:07;;;;;;;27.90;23.60;;;7.50;99.90;;;;;;5076869;28;20186;-80
2021/03/10 09:50:45;;;;;;;33.70;26.38;;;7.60;99.90;;;;;;5068667;28;20195;-80
2021/03/10 09:53:16;;;;;;;33.70;27.88;;;7.30;99.90;;;;;;5059855;28;20223;-79
2021/03/10 09:55:45;;;;;;;37.55;28.70;;;7.40;99.90;;;;;;5049934;28;20207;-80
2021/03/10 09:58:14;;;;;;;36.47;26.75;;;7.10;99.90;;;;;;5053505;28;20195;-80
2021/03/10 10:00:59;;;;;;;34.40;28.10;;;7.10;99.90;;;;;;5071848;28;20939;-80
2021/03/10 10:03:28;;;;;;;32.45;25.63;;;7.40;99.90;;;;;;5062798;28;20298;-80
2021/03/10 10:06:06;;;;;;;33.85;26.48;;;7.50;99.90;;;;;;5048772;28;20218;-79
2021/03/10 10:08:34;;;;;;;32.72;26.02;;;7.60;99.90;;;;;;5080102;28;20236;-80
2021/03/10 10:11:01;;;;;;;36.47;28.00;;;7.70;99.90;;;;;;5042089;28;20195;-80
2021/03/10 10:13:29;;;;;;;33.67;26.60;;;7.90;99.90;;;;;;5062633;28;20222;-81
2021/03/10 10:15:56;;;;;;;31.67;25.52;;;8.00;99.90;;;;;;5068119;28;20197;-80
2021/03/10 10:18:23;;;;;;;32.53;26.23;;;8.20;99.90;;;;;;5068818;28;20200;-79
2021/03/10 10:20:54;;;;;;;33.08;25.40;;;8.30;99.90;;;;;;5079657;28;20256;-79
2021/03/10 10:23:26;;;;;;;36.83;27.65;;;8.40;99.90;;;;;;5056568;28;20242;-79
2021/03/10 10:26:03;;;;;;;30.65;23.55;;;8.30;99.90;;;;;;5056481;28;20259;-79
2021/03/10 10:28:34;;;;;;;29.23;23.50;;;7.80;99.90;;;;;;5064245;28;20276;-79
2021/03/10 10:31:03;;;;;;;30.90;25.35;;;7.80;99.90;;;;;;5069772;28;20202;-79
2021/03/10 10:33:33;;;;;;;28.80;23.27;;;7.60;99.90;;;;;;5056918;28;20260;-79
2021/03/10 10:36:00;;;;;;;28.83;22.73;;;7.50;99.90;;;;;;5076730;28;20251;-80
2021/03/10 10:38:27;;;;;;;29.83;25.90;;;7.70;99.90;;;;;;5060007;28;20194;-79
2021/03/10 10:40:57;;;;;;;29.25;24.05;;;7.60;99.90;;;;;;5056404;28;20196;-79
2021/03/10 10:43:24;;;;;;;31.13;24.08;;;7.60;99.90;;;;;;5072221;28;20246;-78
2021/03/10 10:45:57;;;;;;;30.70;25.15;;;7.60;99.90;;;;;;5054776;28;20682;-81
2021/03/10 10:48:29;;;;;;;26.27;21.70;;;8.00;99.90;;;;;;5069391;28;20696;-76
2021/03/10 10:51:09;;;;;;;29.55;23.73;;;8.10;99.90;;;;;;5058081;28;20188;-75
2021/03/10 10:53:49;;;;;;;29.25;24.35;;;8.10;99.90;;;;;;5068260;28;20206;-75
2021/03/10 10:56:19;;;;;;;30.67;24.48;;;8.10;99.90;;;;;;5059602;28;20661;-76
2021/03/10 10:58:46;;;;;;;27.52;22.17;;;8.20;99.90;;;;;;5074154;28;20205;-76
2021/03/10 11:01:14;;;;;;;24.88;21.92;;;8.10;99.90;;;;;;5072509;28;20215;-77
2021/03/10 11:03:42;;;;;;;28.58;23.27;;;7.80;99.90;;;;;;5065345;28;20228;-76
2021/03/10 11:06:10;;;;;;;29.08;22.02;;;7.70;99.90;;;;;;5038076;28;20219;-76
2021/03/10 11:08:42;;;;;;;29.23;20.73;;;8.50;99.90;;;;;;5053949;28;20341;-77
2021/03/10 11:11:09;;;;;;;25.15;21.63;;;9.10;99.90;;;;;;5053076;28;20609;-76
2021/03/10 11:13:37;;;;;;;25.30;20.40;;;9.40;99.90;;;;;;5037772;28;20208;-76
2021/03/10 11:16:17;;;;;;;25.65;22.10;;;9.80;99.90;;;;;;5068580;28;20197;-77
2021/03/10 11:18:54;;;;;;;25.42;20.85;;;9.80;99.90;;;;;;5036036;28;20196;-77
2021/03/10 11:21:21;;;;;;;23.77;19.63;;;9.30;99.90;;;;;;5055466;28;20198;-76
2021/03/10 11:23:48;;;;;;;19.08;17.08;;;9.00;99.90;;;;;;5038779;28;20233;-75
2021/03/10 11:26:15;;;;;;;20.73;18.38;;;8.90;99.90;;;;;;5054459;28;20583;-77
2021/03/10 11:28:42;;;;;;;21.38;17.88;;;8.60;99.90;;;;;;5054850;28;20197;-76
2021/03/10 11:31:12;;;;;;;22.27;18.20;;;8.30;99.90;;;;;;5067680;28;20245;-76
2021/03/10 11:33:39;;;;;;;21.45;19.13;;;8.30;99.90;;;;;;5051770;28;20216;-76
2021/03/10 11:36:10;;;;;;;25.73;19.85;;;8.20;99.90;;;;;;5045833;28;20670;-75
2021/03/10 11:38:45;;;;;;;26.27;18.92;;;8.10;99.90;;;;;;5058788;28;20286;-76
2021/03/10 11:41:12;;;;;;;21.45;19.15;;;8.10;99.90;;;;;;5062428;28;20217;-76
2021/03/10 11:43:38;;;;;;;28.52;22.95;;;7.90;99.90;;;;;;5063567;28;20310;-76
2021/03/10 11:46:06;;;;;;;30.25;22.60;;;8.00;99.90;;;;;;5062440;28;20199;-76
2021/03/10 11:48:33;;;;;;;28.90;22.10;;;8.30;99.90;;;;;;5048237;28;20190;-77
2021/03/10 11:51:00;;;;;;;24.65;19.50;;;8.30;99.90;;;;;;5063169;28;20246;-76
2021/03/10 11:53:27;;;;;;;24.38;21.77;;;8.40;99.90;;;;;;5065587;28;20207;-77
2021/03/10 11:55:54;;;;;;;24.80;20.42;;;8.70;99.90;;;;;;5057710;28;20290;-78
2021/03/10 11:58:22;;;;;;;26.38;20.65;;;8.70;99.90;;;;;;5062398;28;20191;-77
2021/03/10 12:00:50;;;;;;;26.70;21.50;;;8.60;99.90;;;;;;5054213;28;20210;-76
2021/03/10 12:03:22;;;;;;;31.77;22.63;;;8.40;99.90;;;;;;5046078;28;20797;-77
2021/03/10 12:05:58;;;;;;;29.13;23.30;;;8.60;99.90;;;;;;5045477;28;20570;-76
2021/03/10 12:08:26;;;;;;;31.33;23.77;;;8.80;99.90;;;;;;5065023;28;20255;-76
2021/03/10 12:10:52;;;;;;;27.98;24.08;;;8.70;99.90;;;;;;5058422;28;20202;-76
2021/03/10 12:13:19;;;;;;;31.10;24.30;;;8.50;99.90;;;;;;5056501;28;20214;-77
2021/03/10 12:15:46;;;;;;;29.60;22.27;;;8.40;99.90;;;;;;5058339;28;20236;-77
2021/03/10 12:18:12;;;;;;;27.77;22.73;;;9.00;99.90;;;;;;5056352;28;20203;-77
2021/03/10 12:20:39;;;;;;;26.88;21.23;;;9.50;99.90;;;;;;5061377;28;20707;-76
2021/03/10 12:23:05;;;;;;;27.40;21.92;;;9.20;99.90;;;;;;5061709;28;20223;-75
2021/03/10 12:25:33;;;;;;;27.63;23.95;;;9.80;99.90;;;;;;5059831;28;20238;-75
2021/03/10 12:27:59;;;;;;;29.48;24.35;;;9.60;99.90;;;;;;5059557;28;20796;-75
2021/03/10 12:30:26;;;;;;;29.30;23.60;;;9.20;99.90;;;;;;5053889;28;20292;-77
2021/03/10 12:32:53;;;;;;;28.40;23.73;;;8.90;99.90;;;;;;5055965;28;20203;-79
2021/03/10 12:35:19;;;;;;;25.42;21.70;;;8.70;99.90;;;;;;5036149;28;20195;-79
2021/03/10 12:37:46;;;;;;;30.33;24.02;;;8.70;99.90;;;;;;5050876;28;20279;-79
2021/03/10 12:40:14;;;;;;;29.65;24.63;;;8.70;99.90;;;;;;5062090;28;20213;-79
2021/03/10 12:42:42;;;;;;;29.17;24.70;;;8.60;99.90;;;;;;5053508;28;20191;-78
2021/03/10 12:45:10;;;;;;;29.33;23.25;;;8.70;99.90;;;;;;5074151;28;20268;-79